Flight Track Log - Related Links

Times and Time Zones

All times are in EDT time to prevent confusion due to time zone crossing. See the AAL2345 flight status page for this flight to view local times or setup timezone preferences in your user account.

Time Position Orientation Groundspeed Altitude Reporting Facility
EDT Latitude Longitude Course Direction KTS MPH feet Rate Location/Type
Fri 06:31:54 PM 41.9333 -87.9667 207° Southwest 195 224 2,700  Level Chicago TRACON
Fri 06:32:54 PM 41.8667 -87.9667 180° South 261 300 4,400 2,118 Climbing Chicago TRACON
Fri 06:33:00 PM 41.7546 -88.1733 199° South  Level Estimated
Fri 06:33:53 PM 41.8031 -87.9508 169° South 263 303 6,900  Level Chicago Center
Fri 06:34:00 PM 41.6616 -88.1244 159° South  Level FlightAware Approximate
Fri 06:34:56 PM 41.7322 -87.9825 198° South 270 311 9,800  Level Chicago Center
Fri 06:35:00 PM 41.5871 -88.2134 198° South  Level Estimated
Fri 06:35:58 PM 41.6558 -88.0311 205° Southwest 284 327 12,600  Level Chicago Center
Fri 06:36:00 PM 41.5126 -88.3021 194° South  Level Estimated
Fri 06:37:00 PM 41.4309 -88.3989 207° Southwest  Level Estimated
Fri 06:37:00 PM 41.5731 -88.0803 204° Southwest 331 381 13,900  Level Chicago Center
Fri 06:38:02 PM 41.4736 -88.1392 204° Southwest 365 420 16,500 2,323 Climbing Chicago Center
Fri 06:39:04 PM 41.3836 -88.1917 204° Southwest 372 428 18,700 2,177 Climbing Chicago Center
Fri 06:40:06 PM 41.2844 -88.2350 198° South 378 435 21,000 2,129 Climbing Chicago Center
Fri 06:41:08 PM 41.1614 -88.2917 199° South 388 447 23,100 1,887 Climbing Chicago Center
Fri 06:42:10 PM 41.0553 -88.3400 199° South 398 458 24,900 1,452 Climbing Chicago Center
Fri 06:43:12 PM 40.9447 -88.3883 198° South 415 478 26,100 1,200 Climbing Chicago Center
Fri 06:44:15 PM 40.8328 -88.4389 199° South 423 487 27,400 912 Climbing Chicago Center
Fri 06:45:17 PM 40.7167 -88.4908 199° South 436 502 28,000 290 Climbing Chicago Center
Fri 06:46:19 PM 40.5992 -88.5414 198° South 443 510 28,000  Level Chicago Center
Fri 06:47:21 PM 40.4656 -88.6000 198° South 443 510 28,000  Level Chicago Center
Fri 06:48:23 PM 40.3489 -88.6522 199° South 443 510 28,000  Level Chicago Center
Fri 06:49:25 PM 40.2489 -88.7375 213° Southwest 428 493 28,000  Level Chicago Center
Fri 06:50:27 PM 40.1542 -88.8325 217° Southwest 428 493 28,000  Level Chicago Center
Fri 06:51:29 PM 40.0617 -88.9283 218° Southwest 427 491 28,000  Level Chicago Center
Fri 06:52:31 PM 39.9503 -89.0433 218° Southwest 425 489 28,000  Level Chicago Center
Fri 06:53:34 PM 39.8572 -89.1389 218° Southwest 423 487 28,000  Level Chicago Center
Fri 06:54:36 PM 39.7633 -89.2311 217° Southwest 424 488 28,000  Level Chicago Center
Fri 06:55:38 PM 39.6583 -89.3417 219° Southwest 427 491 28,000  Level Kansas City Center
Fri 06:56:40 PM 39.5633 -89.4364 218° Southwest 429 494 28,000  Level Kansas City Center
Fri 06:57:42 PM 39.4700 -89.5314 218° Southwest 429 494 28,000  Level Kansas City Center
Fri 06:58:44 PM 39.3758 -89.6272 218° Southwest 429 494 28,000  Level Kansas City Center
Fri 06:59:46 PM 39.2803 -89.7208 217° Southwest 429 494 28,000  Level Kansas City Center
Fri 07:00:48 PM 39.1736 -89.8275 218° Southwest 430 495 28,000  Level Kansas City Center
Fri 07:01:50 PM 39.0794 -89.9214 218° Southwest 430 495 28,000  Level Kansas City Center
Fri 07:02:52 PM 38.9864 -90.0175 219° Southwest 431 496 28,000  Level Kansas City Center
Fri 07:03:54 PM 38.9067 -90.1283 227° Southwest 422 486 28,000  Level Kansas City Center
Fri 07:04:56 PM 38.8261 -90.2358 226° Southwest 415 478 28,000  Level Kansas City Center
Fri 07:05:58 PM 38.7358 -90.3639 228° Southwest 424 488 28,000  Level Kansas City Center
Fri 07:07:00 PM 38.6544 -90.4733 226° Southwest 425 489 28,000  Level Kansas City Center
Fri 07:08:02 PM 38.5731 -90.5836 227° Southwest 425 489 28,000  Level Kansas City Center
Fri 07:09:04 PM 38.4872 -90.6992 227° Southwest 425 489 28,000  Level Kansas City Center
Fri 07:10:06 PM 38.4022 -90.8142 227° Southwest 435 501 28,000  Level Kansas City Center
Fri 07:11:09 PM 38.3025 -90.9478 226° Southwest 435 501 28,000  Level Kansas City Center
Fri 07:12:11 PM 38.2192 -91.0586 226° Southwest 435 501 28,000 242 Level Kansas City Center
Fri 07:13:13 PM 38.1322 -91.1711 226° Southwest 435 501 28,500 726 Climbing Kansas City Center
Fri 07:14:15 PM 38.0483 -91.2819 226° Southwest 435 501 29,500 726 Climbing Kansas City Center
Fri 07:15:17 PM 37.9619 -91.3947 226° Southwest 439 505 30,000 242 Climbing Kansas City Center
Fri 07:16:19 PM 37.8783 -91.5072 227° Southwest 439 505 30,000  Level Kansas City Center
Fri 07:17:21 PM 37.7922 -91.6181 226° Southwest 439 505 30,000  Level Kansas City Center
Fri 07:18:23 PM 37.6908 -91.7519 226° Southwest 438 504 30,000  Level Kansas City Center
Fri 07:19:25 PM 37.6061 -91.8608 226° Southwest 436 502 30,000  Level Kansas City Center
Fri 07:20:27 PM 37.5217 -91.9717 226° Southwest 435 501 30,000  Level Kansas City Center
Fri 07:21:29 PM 37.4333 -92.0778 224° Southwest 435 501 30,000 242 Level Kansas City Center
Fri 07:22:31 PM 37.3397 -92.1786 221° Southwest 436 502 30,500 823 Climbing Kansas City Center
Fri 07:23:33 PM 37.2464 -92.2811 221° Southwest 437 503 31,700 726 Climbing Kansas City Center
Fri 07:24:35 PM 37.1550 -92.3825 221° Southwest 437 503 32,000 145 Climbing Kansas City Center
Fri 07:25:37 PM 37.0639 -92.4822 221° Southwest 437 503 32,000  Level Kansas City Center
Fri 07:26:39 PM 36.9539 -92.6039 221° Southwest 437 503 32,000  Level Kansas City Center
Fri 07:27:41 PM 36.8625 -92.7053 222° Southwest 437 503 32,000  Level Kansas City Center
Fri 07:28:44 PM 36.7700 -92.8056 221° Southwest 437 503 32,000  Level Kansas City Center
Fri 07:29:46 PM 36.6769 -92.9047 221° Southwest 437 503 32,000  Level Kansas City Center
Fri 07:30:22 PM 36.6219 -92.9642 221° Southwest 439 505 32,000  Level Memphis Center
Fri 07:31:24 PM 36.5306 -93.0653 222° Southwest 438 504 32,000  Level Memphis Center
Fri 07:32:26 PM 36.4408 -93.1631 221° Southwest 439 505 32,000  Level Memphis Center
Fri 07:33:28 PM 36.3306 -93.2800 221° Southwest 439 505 32,000  Level Memphis Center
Fri 07:34:30 PM 36.2386 -93.3792 221° Southwest 439 505 32,000  Level Memphis Center
Fri 07:35:32 PM 36.1467 -93.4778 221° Southwest 439 505 32,000  Level Memphis Center
Fri 07:36:34 PM 36.0536 -93.5756 220° Southwest 439 505 32,000  Level Memphis Center
Fri 07:37:36 PM 35.9611 -93.6725 220° Southwest 439 505 32,000  Level Memphis Center
Fri 07:38:38 PM 35.8503 -93.7894 221° Southwest 439 505 32,000  Level Memphis Center
Fri 07:39:41 PM 35.7583 -93.8861 220° Southwest 439 505 32,000  Level Memphis Center
Fri 07:40:43 PM 35.6656 -93.9831 220° Southwest 439 505 32,000  Level Memphis Center
Fri 07:41:45 PM 35.5742 -94.0806 221° Southwest 439 505 32,000  Level Memphis Center
Fri 07:42:47 PM 35.4808 -94.1772 220° Southwest 439 505 32,000  Level Memphis Center
Fri 07:43:49 PM 35.3694 -94.2933 220° Southwest 439 505 32,000  Level Memphis Center
Fri 07:44:51 PM 35.2786 -94.3922 222° Southwest 439 505 32,000  Level Memphis Center
Fri 07:45:53 PM 35.1883 -94.4894 221° Southwest 439 505 32,000  Level Memphis Center
Fri 07:46:55 PM 35.0994 -94.5867 222° Southwest 434 499 32,000  Level Memphis Center
Fri 07:47:57 PM 34.9994 -94.6961 222° Southwest 429 494 32,000  Level Memphis Center
Fri 07:48:59 PM 34.9094 -94.7919 221° Southwest 427 491 32,000  Level Memphis Center
Fri 07:50:01 PM 34.8211 -94.8861 221° Southwest 427 491 32,000 -968 Level Memphis Center
Fri 07:51:03 PM 34.7319 -94.9828 222° Southwest 426 490 30,000 -2,371 Descending Memphis Center
Fri 07:52:05 PM 34.6397 -95.0808 221° Southwest 432 497 27,100 -2,208 Descending Memphis Center
Fri 07:53:08 PM 34.5508 -95.1758 221° Southwest 432 497 25,400 -1,344 Descending Memphis Center
Fri 07:54:10 PM 34.4661 -95.2661 221° Southwest 409 471 24,300 -571 Descending Memphis Center
Fri 07:55:35 PM 34.3503 -95.3878 221° Southwest 402 463 24,000 -122 Descending Fort Worth Center
Fri 07:56:37 PM 34.2500 -95.4939 221° Southwest 402 463 24,000  Level Fort Worth Center
Fri 07:57:39 PM 34.1669 -95.5797 221° Southwest 401 461 24,000  Level Fort Worth Center
Fri 07:58:41 PM 34.0881 -95.6617 221° Southwest 359 413 24,000  Level Fort Worth Center
Fri 07:59:43 PM 34.0125 -95.7322 218° Southwest 360 414 24,000 -581 Level Fort Worth Center
Fri 08:00:45 PM 33.9317 -95.8119 219° Southwest 372 428 22,800 -1,452 Descending Fort Worth Center
Fri 08:01:47 PM 33.8456 -95.8922 218° Southwest 389 448 21,000 -1,984 Descending Fort Worth Center
Fri 08:02:49 PM 33.7486 -95.9836 218° Southwest 372 428 18,700 -2,016 Descending Fort Worth Center
Fri 08:03:52 PM 33.6719 -96.0572 219° Southwest 358 412 16,800 -1,920 Descending Fort Worth Center
Fri 08:04:54 PM 33.5908 -96.1317 217° Southwest 343 395 14,700 -1,935 Descending Fort Worth Center
Fri 08:05:56 PM 33.5194 -96.2000 219° Southwest 329 379 12,800 -1,355 Descending Fort Worth Center
Fri 08:06:58 PM 33.4486 -96.2678 219° Southwest 300 345 11,900 -1,016 Descending Fort Worth Center
Fri 08:08:00 PM 33.3942 -96.3328 225° Southwest 281 323 10,700 -1,258 Descending Fort Worth Center
Fri 08:09:02 PM 33.3511 -96.4056 235° Southwest 278 320 9,300 -1,500 Descending Fort Worth Center
Fri 08:10:04 PM 33.3217 -96.4903 247° West 261 300 7,600 -1,597 Descending Fort Worth Center
Fri 08:11:06 PM 33.2925 -96.5672 246° West 259 298 6,000 -1,258 Descending Fort Worth Center
Fri 08:12:08 PM 33.2489 -96.6447 236° Southwest 259 298 5,000 -480 Descending Fort Worth Center
Fri 08:13:11 PM 33.2094 -96.7136 236° Southwest 257 296 5,000  Level Fort Worth Center
Fri 08:14:13 PM 33.1650 -96.7886 235° Southwest 257 296 5,000  Level Fort Worth Center
Fri 08:15:15 PM 33.1261 -96.8592 237° Southwest 257 296 5,000 -532 Level Fort Worth Center
Fri 08:16:17 PM 33.0908 -96.9317 240° Southwest 247 284 3,900 -1,065 Descending Fort Worth Center
Fri 08:17:19 PM 33.0433 -96.9858 224° Southwest 219 252 2,800 -774 Descending Fort Worth Center
Fri 08:18:21 PM 32.9967 -97.0097 203° Southwest 181 208 2,300 -581 Descending Fort Worth Center
Fri 08:19:23 PM 32.9525 -97.0094 180° South 147 169 1,600 -629 Descending Fort Worth Center
Fri 08:20:25 PM 32.9175 -97.0103 181° South 131 151 1,000 -484 Descending Fort Worth Center
Fri 08:21:27 PM 32.8833 -97.0075 176° South 130 150 600 -387 Descending Fort Worth Center

Login

Don't have an account? Register now (free) for customized features, flight alerts, and more!